sensor_id;sensor_type;location;lat;lon;timestamp;temperature;humidity
14771;DHT22;7477;45.222;5.688;2023-01-19T00:00:11;1.60;99.90
14771;DHT22;7477;45.222;5.688;2023-01-19T00:03:31;1.70;99.90
14771;DHT22;7477;45.222;5.688;2023-01-19T00:06:50;1.60;99.90
14771;DHT22;7477;45.222;5.688;2023-01-19T00:10:09;1.60;99.90
14771;DHT22;7477;45.222;5.688;2023-01-19T00:13:29;1.50;99.90
14771;DHT22;7477;45.222;5.688;2023-01-19T00:16:48;1.60;99.90
14771;DHT22;7477;45.222;5.688;2023-01-19T00:20:08;1.50;99.90
14771;DHT22;7477;45.222;5.688;2023-01-19T00:23:28;1.60;99.90
14771;DHT22;7477;45.222;5.688;2023-01-19T00:26:47;1.50;99.90
14771;DHT22;7477;45.222;5.688;2023-01-19T00:30:09;1.50;99.90
14771;DHT22;7477;45.222;5.688;2023-01-19T00:33:29;1.50;99.90
14771;DHT22;7477;45.222;5.688;2023-01-19T00:36:47;1.50;99.90
14771;DHT22;7477;45.222;5.688;2023-01-19T00:40:08;1.50;99.90
14771;DHT22;7477;45.222;5.688;2023-01-19T00:43:27;1.50;99.90
14771;DHT22;7477;45.222;5.688;2023-01-19T00:46:47;1.50;99.90
14771;DHT22;7477;45.222;5.688;2023-01-19T00:50:07;1.40;99.90
14771;DHT22;7477;45.222;5.688;2023-01-19T00:53:29;1.50;99.90
14771;DHT22;7477;45.222;5.688;2023-01-19T00:56:50;1.50;99.90
14771;DHT22;7477;45.222;5.688;2023-01-19T01:00:12;1.40;99.90
14771;DHT22;7477;45.222;5.688;2023-01-19T01:03:31;1.40;99.90
14771;DHT22;7477;45.222;5.688;2023-01-19T01:06:51;1.40;99.90
14771;DHT22;7477;45.222;5.688;2023-01-19T01:10:12;1.40;99.90
14771;DHT22;7477;45.222;5.688;2023-01-19T01:13:32;1.40;99.90
14771;DHT22;7477;45.222;5.688;2023-01-19T01:16:51;1.30;99.90
14771;DHT22;7477;45.222;5.688;2023-01-19T01:20:12;1.40;99.90
14771;DHT22;7477;45.222;5.688;2023-01-19T01:23:34;1.30;99.90
14771;DHT22;7477;45.222;5.688;2023-01-19T01:26:54;1.30;99.90
14771;DHT22;7477;45.222;5.688;2023-01-19T01:30:14;1.30;99.90
14771;DHT22;7477;45.222;5.688;2023-01-19T01:33:34;1.30;99.90
14771;DHT22;7477;45.222;5.688;2023-01-19T01:36:53;1.30;99.90
14771;DHT22;7477;45.222;5.688;2023-01-19T01:40:15;1.20;99.90
14771;DHT22;7477;45.222;5.688;2023-01-19T01:43:51;1.30;99.90
14771;DHT22;7477;45.222;5.688;2023-01-19T01:47:40;1.30;99.90
14771;DHT22;7477;45.222;5.688;2023-01-19T01:51:14;1.30;99.90
14771;DHT22;7477;45.222;5.688;2023-01-19T01:54:42;1.20;99.90
14771;DHT22;7477;45.222;5.688;2023-01-19T01:58:03;1.20;99.90
14771;DHT22;7477;45.222;5.688;2023-01-19T02:01:23;1.20;99.90
14771;DHT22;7477;45.222;5.688;2023-01-19T02:05:08;1.10;99.90
14771;DHT22;7477;45.222;5.688;2023-01-19T02:09:20;1.10;99.90
14771;DHT22;7477;45.222;5.688;2023-01-19T02:12:33;1.10;99.90
14771;DHT22;7477;45.222;5.688;2023-01-19T02:16:11;1.10;99.90
14771;DHT22;7477;45.222;5.688;2023-01-19T02:19:40;1.10;99.90
14771;DHT22;7477;45.222;5.688;2023-01-19T02:23:02;1.10;99.90
14771;DHT22;7477;45.222;5.688;2023-01-19T02:26:27;1.00;99.90
14771;DHT22;7477;45.222;5.688;2023-01-19T02:29:47;1.00;99.90
14771;DHT22;7477;45.222;5.688;2023-01-19T02:33:06;1.00;99.90
14771;DHT22;7477;45.222;5.688;2023-01-19T02:36:31;0.90;99.90
14771;DHT22;7477;45.222;5.688;2023-01-19T02:39:56;0.90;99.90
14771;DHT22;7477;45.222;5.688;2023-01-19T02:43:16;0.90;99.90
14771;DHT22;7477;45.222;5.688;2023-01-19T02:46:37;0.90;99.90
14771;DHT22;7477;45.222;5.688;2023-01-19T02:49:58;0.90;99.90
14771;DHT22;7477;45.222;5.688;2023-01-19T03:08:52;0.80;99.90
14771;DHT22;7477;45.222;5.688;2023-01-19T03:15:56;0.80;99.90
14771;DHT22;7477;45.222;5.688;2023-01-19T03:19:32;0.80;99.90
14771;DHT22;7477;45.222;5.688;2023-01-19T03:22:56;0.80;99.90
14771;DHT22;7477;45.222;5.688;2023-01-19T03:26:19;0.70;99.90
14771;DHT22;7477;45.222;5.688;2023-01-19T03:29:43;0.60;99.90
14771;DHT22;7477;45.222;5.688;2023-01-19T03:33:10;0.50;99.90
14771;DHT22;7477;45.222;5.688;2023-01-19T03:36:33;0.50;99.90
14771;DHT22;7477;45.222;5.688;2023-01-19T03:39:53;0.40;99.90
14771;DHT22;7477;45.222;5.688;2023-01-19T03:43:15;0.50;99.90
14771;DHT22;7477;45.222;5.688;2023-01-19T03:46:34;0.50;99.90
14771;DHT22;7477;45.222;5.688;2023-01-19T03:49:55;0.50;99.90
14771;DHT22;7477;45.222;5.688;2023-01-19T03:53:16;0.50;99.90
14771;DHT22;7477;45.222;5.688;2023-01-19T03:56:35;0.40;99.90
14771;DHT22;7477;45.222;5.688;2023-01-19T03:59:55;0.30;99.90
14771;DHT22;7477;45.222;5.688;2023-01-19T04:03:16;0.30;99.90
14771;DHT22;7477;45.222;5.688;2023-01-19T04:06:35;0.20;99.90
14771;DHT22;7477;45.222;5.688;2023-01-19T04:09:54;0.20;99.90
14771;DHT22;7477;45.222;5.688;2023-01-19T04:13:13;0.20;99.90
14771;DHT22;7477;45.222;5.688;2023-01-19T04:16:32;0.10;99.90
14771;DHT22;7477;45.222;5.688;2023-01-19T04:19:52;0.00;99.90
14771;DHT22;7477;45.222;5.688;2023-01-19T04:23:11;0.00;99.90
14771;DHT22;7477;45.222;5.688;2023-01-19T04:26:30;0.00;99.90
14771;DHT22;7477;45.222;5.688;2023-01-19T04:29:49;-0.10;99.90
14771;DHT22;7477;45.222;5.688;2023-01-19T04:33:09;-0.10;99.90
14771;DHT22;7477;45.222;5.688;2023-01-19T04:36:28;-0.10;99.90
14771;DHT22;7477;45.222;5.688;2023-01-19T04:39:47;-0.20;99.90
14771;DHT22;7477;45.222;5.688;2023-01-19T04:43:07;-0.30;99.90
14771;DHT22;7477;45.222;5.688;2023-01-19T04:46:26;-0.30;99.90
14771;DHT22;7477;45.222;5.688;2023-01-19T04:49:45;-0.40;99.90
14771;DHT22;7477;45.222;5.688;2023-01-19T04:53:04;-0.30;99.90
14771;DHT22;7477;45.222;5.688;2023-01-19T04:56:23;-0.40;99.90
14771;DHT22;7477;45.222;5.688;2023-01-19T04:59:42;-0.40;99.90
14771;DHT22;7477;45.222;5.688;2023-01-19T05:03:02;-0.40;99.90
14771;DHT22;7477;45.222;5.688;2023-01-19T05:06:22;-0.30;99.90
14771;DHT22;7477;45.222;5.688;2023-01-19T05:09:41;-0.30;99.90
14771;DHT22;7477;45.222;5.688;2023-01-19T05:13:01;-0.30;99.90
14771;DHT22;7477;45.222;5.688;2023-01-19T05:16:20;-0.40;99.90
14771;DHT22;7477;45.222;5.688;2023-01-19T05:19:39;-0.40;99.90
14771;DHT22;7477;45.222;5.688;2023-01-19T05:22:59;-0.40;99.90
14771;DHT22;7477;45.222;5.688;2023-01-19T05:26:19;-0.40;99.90
14771;DHT22;7477;45.222;5.688;2023-01-19T05:29:38;-0.40;99.90
14771;DHT22;7477;45.222;5.688;2023-01-19T05:32:57;-0.40;99.90
14771;DHT22;7477;45.222;5.688;2023-01-19T05:36:16;-0.40;99.90
14771;DHT22;7477;45.222;5.688;2023-01-19T05:39:35;-0.40;99.90
14771;DHT22;7477;45.222;5.688;2023-01-19T05:42:55;-0.40;99.90
14771;DHT22;7477;45.222;5.688;2023-01-19T05:46:18;-0.40;99.90
14771;DHT22;7477;45.222;5.688;2023-01-19T05:49:37;-0.40;99.90
14771;DHT22;7477;45.222;5.688;2023-01-19T05:52:56;-0.40;99.90
14771;DHT22;7477;45.222;5.688;2023-01-19T05:56:16;-0.40;99.90
14771;DHT22;7477;45.222;5.688;2023-01-19T05:59:35;-0.40;99.90
14771;DHT22;7477;45.222;5.688;2023-01-19T06:02:55;-0.40;99.90
14771;DHT22;7477;45.222;5.688;2023-01-19T06:06:14;-0.50;99.90
14771;DHT22;7477;45.222;5.688;2023-01-19T06:09:33;-0.50;99.90
14771;DHT22;7477;45.222;5.688;2023-01-19T06:12:52;-0.50;99.90
14771;DHT22;7477;45.222;5.688;2023-01-19T06:16:12;-0.50;99.90
14771;DHT22;7477;45.222;5.688;2023-01-19T06:19:32;-0.50;99.90
14771;DHT22;7477;45.222;5.688;2023-01-19T06:22:55;-0.50;99.90
14771;DHT22;7477;45.222;5.688;2023-01-19T06:26:15;-0.50;99.90
14771;DHT22;7477;45.222;5.688;2023-01-19T06:29:35;-0.50;99.90
14771;DHT22;7477;45.222;5.688;2023-01-19T06:32:54;-0.40;99.90
14771;DHT22;7477;45.222;5.688;2023-01-19T06:36:13;-0.60;99.90
14771;DHT22;7477;45.222;5.688;2023-01-19T06:39:32;-0.60;99.90
14771;DHT22;7477;45.222;5.688;2023-01-19T06:42:51;-0.70;99.90
14771;DHT22;7477;45.222;5.688;2023-01-19T06:46:11;-0.70;99.90
14771;DHT22;7477;45.222;5.688;2023-01-19T06:49:31;-0.70;99.90
14771;DHT22;7477;45.222;5.688;2023-01-19T06:52:51;-0.70;99.90
14771;DHT22;7477;45.222;5.688;2023-01-19T06:56:10;-0.60;99.90
14771;DHT22;7477;45.222;5.688;2023-01-19T06:59:30;-0.50;99.90
14771;DHT22;7477;45.222;5.688;2023-01-19T07:02:49;-0.50;99.90
14771;DHT22;7477;45.222;5.688;2023-01-19T07:06:08;-0.50;99.90
14771;DHT22;7477;45.222;5.688;2023-01-19T07:09:28;-0.70;99.90
14771;DHT22;7477;45.222;5.688;2023-01-19T07:12:47;-0.80;99.90
14771;DHT22;7477;45.222;5.688;2023-01-19T07:16:07;-0.80;99.90
14771;DHT22;7477;45.222;5.688;2023-01-19T07:19:27;-0.80;99.90
14771;DHT22;7477;45.222;5.688;2023-01-19T07:22:46;-0.80;99.90
14771;DHT22;7477;45.222;5.688;2023-01-19T07:26:08;-0.60;99.90
14771;DHT22;7477;45.222;5.688;2023-01-19T07:29:27;-0.80;99.90
14771;DHT22;7477;45.222;5.688;2023-01-19T07:32:47;-0.80;99.90
14771;DHT22;7477;45.222;5.688;2023-01-19T07:36:06;-0.80;99.90
14771;DHT22;7477;45.222;5.688;2023-01-19T07:39:26;-0.90;99.90
14771;DHT22;7477;45.222;5.688;2023-01-19T07:42:47;-0.80;99.90
14771;DHT22;7477;45.222;5.688;2023-01-19T07:46:07;-0.70;99.90
14771;DHT22;7477;45.222;5.688;2023-01-19T07:49:26;-0.80;99.90
14771;DHT22;7477;45.222;5.688;2023-01-19T07:52:46;-0.90;99.90
14771;DHT22;7477;45.222;5.688;2023-01-19T07:56:05;-0.80;99.90
14771;DHT22;7477;45.222;5.688;2023-01-19T07:59:26;-0.90;99.90
14771;DHT22;7477;45.222;5.688;2023-01-19T08:02:47;-0.90;99.90
14771;DHT22;7477;45.222;5.688;2023-01-19T08:06:23;-0.80;99.90
14771;DHT22;7477;45.222;5.688;2023-01-19T08:09:43;-0.70;99.90
14771;DHT22;7477;45.222;5.688;2023-01-19T08:13:02;-0.60;99.90
14771;DHT22;7477;45.222;5.688;2023-01-19T08:16:21;-0.70;99.90
14771;DHT22;7477;45.222;5.688;2023-01-19T08:19:42;-0.60;99.90
14771;DHT22;7477;45.222;5.688;2023-01-19T08:23:01;-0.70;99.90
14771;DHT22;7477;45.222;5.688;2023-01-19T08:26:26;0.30;99.90
14771;DHT22;7477;45.222;5.688;2023-01-19T08:29:46;-0.40;99.90
14771;DHT22;7477;45.222;5.688;2023-01-19T08:33:05;-0.30;99.90
14771;DHT22;7477;45.222;5.688;2023-01-19T08:36:28;-0.50;99.90
14771;DHT22;7477;45.222;5.688;2023-01-19T08:39:48;-0.50;99.90
14771;DHT22;7477;45.222;5.688;2023-01-19T08:43:10;-0.50;99.90
14771;DHT22;7477;45.222;5.688;2023-01-19T08:46:30;-0.40;99.90
14771;DHT22;7477;45.222;5.688;2023-01-19T08:49:50;-0.40;99.90
14771;DHT22;7477;45.222;5.688;2023-01-19T08:53:09;-0.30;99.90
14771;DHT22;7477;45.222;5.688;2023-01-19T08:56:28;-0.20;99.90
14771;DHT22;7477;45.222;5.688;2023-01-19T08:59:47;-0.20;99.90
14771;DHT22;7477;45.222;5.688;2023-01-19T09:03:10;-0.10;99.90
14771;DHT22;7477;45.222;5.688;2023-01-19T09:06:30;-0.10;99.90
14771;DHT22;7477;45.222;5.688;2023-01-19T09:09:49;0.00;99.90
14771;DHT22;7477;45.222;5.688;2023-01-19T09:13:10;0.40;99.90
14771;DHT22;7477;45.222;5.688;2023-01-19T09:16:30;0.20;99.90
14771;DHT22;7477;45.222;5.688;2023-01-19T09:19:50;1.80;99.90
14771;DHT22;7477;45.222;5.688;2023-01-19T09:23:14;0.90;99.90
14771;DHT22;7477;45.222;5.688;2023-01-19T09:26:35;0.40;99.90
14771;DHT22;7477;45.222;5.688;2023-01-19T09:29:54;0.30;99.90
14771;DHT22;7477;45.222;5.688;2023-01-19T09:33:15;0.40;99.90
14771;DHT22;7477;45.222;5.688;2023-01-19T09:36:35;0.40;99.90
14771;DHT22;7477;45.222;5.688;2023-01-19T09:39:55;0.40;99.90
14771;DHT22;7477;45.222;5.688;2023-01-19T09:43:32;0.50;99.90
14771;DHT22;7477;45.222;5.688;2023-01-19T09:46:53;0.60;99.90
14771;DHT22;7477;45.222;5.688;2023-01-19T09:50:23;0.70;99.90
14771;DHT22;7477;45.222;5.688;2023-01-19T09:57:09;0.90;99.90
14771;DHT22;7477;45.222;5.688;2023-01-19T10:00:30;1.00;99.90
14771;DHT22;7477;45.222;5.688;2023-01-19T10:03:59;1.10;99.90
14771;DHT22;7477;45.222;5.688;2023-01-19T10:10:54;1.20;99.90
14771;DHT22;7477;45.222;5.688;2023-01-19T10:14:52;1.20;99.90
14771;DHT22;7477;45.222;5.688;2023-01-19T10:18:25;1.20;99.90
14771;DHT22;7477;45.222;5.688;2023-01-19T10:21:50;1.20;99.90
14771;DHT22;7477;45.222;5.688;2023-01-19T10:25:16;1.30;99.90
14771;DHT22;7477;45.222;5.688;2023-01-19T10:28:37;1.30;99.90
14771;DHT22;7477;45.222;5.688;2023-01-19T10:32:07;1.40;99.90
14771;DHT22;7477;45.222;5.688;2023-01-19T10:35:28;1.40;99.90
14771;DHT22;7477;45.222;5.688;2023-01-19T10:38:47;1.40;99.90
14771;DHT22;7477;45.222;5.688;2023-01-19T10:42:12;1.50;99.90
14771;DHT22;7477;45.222;5.688;2023-01-19T10:45:33;1.50;99.90
14771;DHT22;7477;45.222;5.688;2023-01-19T10:48:54;1.60;99.90
14771;DHT22;7477;45.222;5.688;2023-01-19T10:52:34;1.70;99.90
14771;DHT22;7477;45.222;5.688;2023-01-19T10:56:14;1.80;99.90
14771;DHT22;7477;45.222;5.688;2023-01-19T10:59:47;1.70;99.90
14771;DHT22;7477;45.222;5.688;2023-01-19T11:03:28;1.80;99.90
14771;DHT22;7477;45.222;5.688;2023-01-19T11:06:47;1.90;99.90
14771;DHT22;7477;45.222;5.688;2023-01-19T11:13:42;1.90;99.90
14771;DHT22;7477;45.222;5.688;2023-01-19T11:17:01;1.90;99.90
14771;DHT22;7477;45.222;5.688;2023-01-19T11:20:24;2.00;99.90
14771;DHT22;7477;45.222;5.688;2023-01-19T11:27:04;2.00;99.90
14771;DHT22;7477;45.222;5.688;2023-01-19T11:30:25;2.10;99.90
14771;DHT22;7477;45.222;5.688;2023-01-19T11:33:53;2.10;99.90
14771;DHT22;7477;45.222;5.688;2023-01-19T11:40:39;2.10;99.90
14771;DHT22;7477;45.222;5.688;2023-01-19T11:47:43;2.30;99.90
14771;DHT22;7477;45.222;5.688;2023-01-19T11:51:04;2.30;99.90
14771;DHT22;7477;45.222;5.688;2023-01-19T11:54:44;2.30;99.90
14771;DHT22;7477;45.222;5.688;2023-01-19T11:58:05;2.30;99.90
14771;DHT22;7477;45.222;5.688;2023-01-19T12:04:48;2.40;99.90
14771;DHT22;7477;45.222;5.688;2023-01-19T12:08:15;2.50;99.90
14771;DHT22;7477;45.222;5.688;2023-01-19T12:11:57;2.50;99.90
14771;DHT22;7477;45.222;5.688;2023-01-19T12:15:23;2.50;99.90
14771;DHT22;7477;45.222;5.688;2023-01-19T12:18:48;2.60;99.90
14771;DHT22;7477;45.222;5.688;2023-01-19T12:22:13;2.70;99.90
14771;DHT22;7477;45.222;5.688;2023-01-19T12:25:41;2.60;99.90
14771;DHT22;7477;45.222;5.688;2023-01-19T12:29:13;2.70;99.90
14771;DHT22;7477;45.222;5.688;2023-01-19T12:32:34;2.60;99.90
14771;DHT22;7477;45.222;5.688;2023-01-19T12:35:57;2.60;99.90
14771;DHT22;7477;45.222;5.688;2023-01-19T12:39:20;2.70;99.90
14771;DHT22;7477;45.222;5.688;2023-01-19T12:42:48;2.80;99.90
14771;DHT22;7477;45.222;5.688;2023-01-19T12:46:29;2.80;99.90
14771;DHT22;7477;45.222;5.688;2023-01-19T12:49:51;2.80;99.90
14771;DHT22;7477;45.222;5.688;2023-01-19T12:53:18;2.80;99.90
14771;DHT22;7477;45.222;5.688;2023-01-19T12:56:38;2.80;99.90
14771;DHT22;7477;45.222;5.688;2023-01-19T13:00:00;2.80;99.90
14771;DHT22;7477;45.222;5.688;2023-01-19T13:17:45;2.90;99.90
14771;DHT22;7477;45.222;5.688;2023-01-19T13:21:09;3.00;99.90
14771;DHT22;7477;45.222;5.688;2023-01-19T13:28:41;3.00;99.90
14771;DHT22;7477;45.222;5.688;2023-01-19T13:32:04;3.00;99.90
14771;DHT22;7477;45.222;5.688;2023-01-19T13:35:24;3.10;99.90
14771;DHT22;7477;45.222;5.688;2023-01-19T13:38:44;3.10;99.90
14771;DHT22;7477;45.222;5.688;2023-01-19T13:42:08;3.00;99.90
14771;DHT22;7477;45.222;5.688;2023-01-19T13:45:34;3.00;99.90
14771;DHT22;7477;45.222;5.688;2023-01-19T13:49:28;3.10;99.90
14771;DHT22;7477;45.222;5.688;2023-01-19T13:52:49;3.10;99.90
14771;DHT22;7477;45.222;5.688;2023-01-19T13:56:17;3.10;99.90
14771;DHT22;7477;45.222;5.688;2023-01-19T13:59:38;3.10;99.90
14771;DHT22;7477;45.222;5.688;2023-01-19T14:03:07;3.10;99.90
14771;DHT22;7477;45.222;5.688;2023-01-19T14:06:39;3.20;99.90
14771;DHT22;7477;45.222;5.688;2023-01-19T14:10:11;3.20;99.90
14771;DHT22;7477;45.222;5.688;2023-01-19T14:13:35;3.10;99.90
14771;DHT22;7477;45.222;5.688;2023-01-19T14:16:59;3.20;99.90
14771;DHT22;7477;45.222;5.688;2023-01-19T14:20:29;3.20;99.90
14771;DHT22;7477;45.222;5.688;2023-01-19T14:23:50;3.10;99.90
14771;DHT22;7477;45.222;5.688;2023-01-19T14:27:23;3.10;99.90
14771;DHT22;7477;45.222;5.688;2023-01-19T14:31:00;3.10;99.90
14771;DHT22;7477;45.222;5.688;2023-01-19T14:38:21;3.10;99.90
14771;DHT22;7477;45.222;5.688;2023-01-19T14:41:46;3.20;99.90
14771;DHT22;7477;45.222;5.688;2023-01-19T14:48:48;3.30;99.90
14771;DHT22;7477;45.222;5.688;2023-01-19T14:52:38;3.30;99.90
14771;DHT22;7477;45.222;5.688;2023-01-19T14:56:01;3.30;99.90
14771;DHT22;7477;45.222;5.688;2023-01-19T14:59:22;3.30;99.90
14771;DHT22;7477;45.222;5.688;2023-01-19T15:02:41;3.20;99.90
14771;DHT22;7477;45.222;5.688;2023-01-19T15:06:01;3.10;99.90
14771;DHT22;7477;45.222;5.688;2023-01-19T15:09:21;3.00;99.90
14771;DHT22;7477;45.222;5.688;2023-01-19T15:12:40;3.00;99.90
14771;DHT22;7477;45.222;5.688;2023-01-19T15:16:00;2.90;99.90
14771;DHT22;7477;45.222;5.688;2023-01-19T15:19:21;2.80;99.90
14771;DHT22;7477;45.222;5.688;2023-01-19T15:22:40;2.80;99.90
14771;DHT22;7477;45.222;5.688;2023-01-19T15:26:01;2.80;99.90
14771;DHT22;7477;45.222;5.688;2023-01-19T15:29:25;2.80;99.90
14771;DHT22;7477;45.222;5.688;2023-01-19T15:32:44;2.70;99.90
14771;DHT22;7477;45.222;5.688;2023-01-19T15:36:04;2.70;99.90
14771;DHT22;7477;45.222;5.688;2023-01-19T15:39:24;2.70;99.90
14771;DHT22;7477;45.222;5.688;2023-01-19T15:42:45;2.70;99.90
14771;DHT22;7477;45.222;5.688;2023-01-19T15:46:05;2.70;99.90
14771;DHT22;7477;45.222;5.688;2023-01-19T15:49:25;2.60;99.90
14771;DHT22;7477;45.222;5.688;2023-01-19T15:52:44;2.60;99.90
14771;DHT22;7477;45.222;5.688;2023-01-19T15:56:04;2.50;99.90
14771;DHT22;7477;45.222;5.688;2023-01-19T15:59:23;2.50;99.90
14771;DHT22;7477;45.222;5.688;2023-01-19T16:02:43;2.50;99.90
14771;DHT22;7477;45.222;5.688;2023-01-19T16:06:03;2.40;99.90
14771;DHT22;7477;45.222;5.688;2023-01-19T16:09:22;2.30;99.90
14771;DHT22;7477;45.222;5.688;2023-01-19T16:12:45;2.30;99.90
14771;DHT22;7477;45.222;5.688;2023-01-19T16:16:11;2.30;99.90
14771;DHT22;7477;45.222;5.688;2023-01-19T16:19:31;2.20;99.90
14771;DHT22;7477;45.222;5.688;2023-01-19T16:22:50;2.20;99.90
14771;DHT22;7477;45.222;5.688;2023-01-19T16:26:33;2.10;99.90
14771;DHT22;7477;45.222;5.688;2023-01-19T16:29:53;2.00;99.90
14771;DHT22;7477;45.222;5.688;2023-01-19T16:33:12;2.00;99.90
14771;DHT22;7477;45.222;5.688;2023-01-19T16:36:33;2.00;99.90
14771;DHT22;7477;45.222;5.688;2023-01-19T16:39:53;1.90;99.90
14771;DHT22;7477;45.222;5.688;2023-01-19T16:43:13;2.00;99.90
14771;DHT22;7477;45.222;5.688;2023-01-19T16:46:35;1.80;99.90
14771;DHT22;7477;45.222;5.688;2023-01-19T16:49:55;1.70;99.90
14771;DHT22;7477;45.222;5.688;2023-01-19T16:53:14;1.80;99.90
14771;DHT22;7477;45.222;5.688;2023-01-19T16:56:33;1.70;99.90
14771;DHT22;7477;45.222;5.688;2023-01-19T16:59:52;1.60;99.90
14771;DHT22;7477;45.222;5.688;2023-01-19T17:03:11;1.90;99.90
14771;DHT22;7477;45.222;5.688;2023-01-19T17:06:30;1.70;99.90
14771;DHT22;7477;45.222;5.688;2023-01-19T17:09:50;1.60;99.90
14771;DHT22;7477;45.222;5.688;2023-01-19T17:13:09;1.50;99.90
14771;DHT22;7477;45.222;5.688;2023-01-19T17:16:29;1.50;99.90
14771;DHT22;7477;45.222;5.688;2023-01-19T17:19:48;1.40;99.90
14771;DHT22;7477;45.222;5.688;2023-01-19T17:23:08;1.40;99.90
14771;DHT22;7477;45.222;5.688;2023-01-19T17:26:28;1.40;99.90
14771;DHT22;7477;45.222;5.688;2023-01-19T17:29:48;1.40;99.90
14771;DHT22;7477;45.222;5.688;2023-01-19T17:33:08;1.30;99.90
14771;DHT22;7477;45.222;5.688;2023-01-19T17:36:28;1.30;99.90
14771;DHT22;7477;45.222;5.688;2023-01-19T17:39:48;1.20;99.90
14771;DHT22;7477;45.222;5.688;2023-01-19T17:43:08;1.20;99.90
14771;DHT22;7477;45.222;5.688;2023-01-19T17:46:28;1.20;99.90
14771;DHT22;7477;45.222;5.688;2023-01-19T17:49:47;1.10;99.90
14771;DHT22;7477;45.222;5.688;2023-01-19T17:53:06;1.20;99.90
14771;DHT22;7477;45.222;5.688;2023-01-19T17:56:29;1.20;99.90
14771;DHT22;7477;45.222;5.688;2023-01-19T17:59:51;1.20;99.90
14771;DHT22;7477;45.222;5.688;2023-01-19T18:03:10;1.10;99.90
14771;DHT22;7477;45.222;5.688;2023-01-19T18:06:29;1.10;99.90
14771;DHT22;7477;45.222;5.688;2023-01-19T18:09:49;1.20;99.90
14771;DHT22;7477;45.222;5.688;2023-01-19T18:13:09;1.20;99.90
14771;DHT22;7477;45.222;5.688;2023-01-19T18:16:29;1.10;99.90
14771;DHT22;7477;45.222;5.688;2023-01-19T18:19:48;1.00;99.90
14771;DHT22;7477;45.222;5.688;2023-01-19T18:23:09;1.10;99.90
14771;DHT22;7477;45.222;5.688;2023-01-19T18:26:29;1.00;99.90
14771;DHT22;7477;45.222;5.688;2023-01-19T18:29:49;1.00;99.90
14771;DHT22;7477;45.222;5.688;2023-01-19T18:33:10;1.00;99.90
14771;DHT22;7477;45.222;5.688;2023-01-19T18:36:29;1.00;99.90
14771;DHT22;7477;45.222;5.688;2023-01-19T18:39:52;0.90;99.90
14771;DHT22;7477;45.222;5.688;2023-01-19T18:43:13;0.90;99.90
14771;DHT22;7477;45.222;5.688;2023-01-19T18:46:33;0.90;99.90
14771;DHT22;7477;45.222;5.688;2023-01-19T18:49:52;0.90;99.90
14771;DHT22;7477;45.222;5.688;2023-01-19T18:53:11;0.90;99.90
14771;DHT22;7477;45.222;5.688;2023-01-19T18:56:30;0.90;99.90
14771;DHT22;7477;45.222;5.688;2023-01-19T18:59:49;0.80;99.90
14771;DHT22;7477;45.222;5.688;2023-01-19T19:03:09;0.80;99.90
14771;DHT22;7477;45.222;5.688;2023-01-19T19:06:28;0.70;99.90
14771;DHT22;7477;45.222;5.688;2023-01-19T19:09:48;0.70;99.90
14771;DHT22;7477;45.222;5.688;2023-01-19T19:13:09;0.70;99.90
14771;DHT22;7477;45.222;5.688;2023-01-19T19:16:29;0.60;99.90
14771;DHT22;7477;45.222;5.688;2023-01-19T19:19:48;0.60;99.90
14771;DHT22;7477;45.222;5.688;2023-01-19T19:23:09;0.60;99.90
14771;DHT22;7477;45.222;5.688;2023-01-19T19:26:29;0.60;99.90
14771;DHT22;7477;45.222;5.688;2023-01-19T19:29:48;0.70;99.90
14771;DHT22;7477;45.222;5.688;2023-01-19T19:33:07;0.70;99.90
14771;DHT22;7477;45.222;5.688;2023-01-19T19:36:27;0.60;99.90
14771;DHT22;7477;45.222;5.688;2023-01-19T19:39:47;0.60;99.90
14771;DHT22;7477;45.222;5.688;2023-01-19T19:43:06;0.60;99.90
14771;DHT22;7477;45.222;5.688;2023-01-19T19:46:26;0.60;99.90
14771;DHT22;7477;45.222;5.688;2023-01-19T19:49:45;0.50;99.90
14771;DHT22;7477;45.222;5.688;2023-01-19T19:53:04;0.50;99.90
14771;DHT22;7477;45.222;5.688;2023-01-19T19:56:25;0.50;99.90
14771;DHT22;7477;45.222;5.688;2023-01-19T19:59:45;0.50;99.90
14771;DHT22;7477;45.222;5.688;2023-01-19T20:03:05;0.50;99.90
14771;DHT22;7477;45.222;5.688;2023-01-19T20:06:31;0.50;99.90
14771;DHT22;7477;45.222;5.688;2023-01-19T20:09:55;0.50;99.90
14771;DHT22;7477;45.222;5.688;2023-01-19T20:13:14;0.50;99.90
14771;DHT22;7477;45.222;5.688;2023-01-19T20:16:37;0.50;99.90
14771;DHT22;7477;45.222;5.688;2023-01-19T20:19:56;0.50;99.90
14771;DHT22;7477;45.222;5.688;2023-01-19T20:23:17;0.50;99.90
14771;DHT22;7477;45.222;5.688;2023-01-19T20:26:39;0.50;99.90
14771;DHT22;7477;45.222;5.688;2023-01-19T20:29:59;0.40;99.90
14771;DHT22;7477;45.222;5.688;2023-01-19T20:33:18;0.40;99.90
14771;DHT22;7477;45.222;5.688;2023-01-19T20:36:38;0.30;99.90
14771;DHT22;7477;45.222;5.688;2023-01-19T20:39:57;0.30;99.90
14771;DHT22;7477;45.222;5.688;2023-01-19T20:43:16;0.30;99.90
14771;DHT22;7477;45.222;5.688;2023-01-19T20:46:35;0.30;99.90
14771;DHT22;7477;45.222;5.688;2023-01-19T20:49:55;0.30;99.90
14771;DHT22;7477;45.222;5.688;2023-01-19T20:53:14;0.30;99.90
14771;DHT22;7477;45.222;5.688;2023-01-19T20:56:33;0.30;99.90
14771;DHT22;7477;45.222;5.688;2023-01-19T20:59:53;0.40;99.90
14771;DHT22;7477;45.222;5.688;2023-01-19T21:03:12;0.30;99.90
14771;DHT22;7477;45.222;5.688;2023-01-19T21:06:32;0.40;99.90
14771;DHT22;7477;45.222;5.688;2023-01-19T21:09:51;0.40;99.90
14771;DHT22;7477;45.222;5.688;2023-01-19T21:13:10;0.40;99.90
14771;DHT22;7477;45.222;5.688;2023-01-19T21:16:31;0.30;99.90
14771;DHT22;7477;45.222;5.688;2023-01-19T21:19:51;0.20;99.90
14771;DHT22;7477;45.222;5.688;2023-01-19T21:23:10;0.20;99.90
14771;DHT22;7477;45.222;5.688;2023-01-19T21:26:30;0.20;99.90
14771;DHT22;7477;45.222;5.688;2023-01-19T21:29:49;0.20;99.90
14771;DHT22;7477;45.222;5.688;2023-01-19T21:33:08;0.20;99.90
14771;DHT22;7477;45.222;5.688;2023-01-19T21:36:28;0.10;99.90
14771;DHT22;7477;45.222;5.688;2023-01-19T21:39:47;0.00;99.90
14771;DHT22;7477;45.222;5.688;2023-01-19T21:43:06;0.00;99.90
14771;DHT22;7477;45.222;5.688;2023-01-19T21:46:26;-0.10;99.90
14771;DHT22;7477;45.222;5.688;2023-01-19T21:49:47;-0.10;99.90
14771;DHT22;7477;45.222;5.688;2023-01-19T21:53:06;-0.20;99.90
14771;DHT22;7477;45.222;5.688;2023-01-19T21:56:30;-0.20;99.90
14771;DHT22;7477;45.222;5.688;2023-01-19T21:59:49;-0.20;99.90
14771;DHT22;7477;45.222;5.688;2023-01-19T22:03:09;-0.20;99.90
14771;DHT22;7477;45.222;5.688;2023-01-19T22:06:29;-0.30;99.90
14771;DHT22;7477;45.222;5.688;2023-01-19T22:09:48;-0.30;99.90
14771;DHT22;7477;45.222;5.688;2023-01-19T22:13:08;-0.30;99.90
14771;DHT22;7477;45.222;5.688;2023-01-19T22:16:28;-0.40;99.90
14771;DHT22;7477;45.222;5.688;2023-01-19T22:19:47;-0.20;99.90
14771;DHT22;7477;45.222;5.688;2023-01-19T22:23:07;-0.40;99.90
14771;DHT22;7477;45.222;5.688;2023-01-19T22:26:30;-0.40;99.90
14771;DHT22;7477;45.222;5.688;2023-01-19T22:29:50;-0.40;99.90
14771;DHT22;7477;45.222;5.688;2023-01-19T22:33:09;-0.50;99.90
14771;DHT22;7477;45.222;5.688;2023-01-19T22:36:30;-0.50;99.90
14771;DHT22;7477;45.222;5.688;2023-01-19T22:39:49;-0.60;99.90
14771;DHT22;7477;45.222;5.688;2023-01-19T22:43:10;-0.70;99.90
14771;DHT22;7477;45.222;5.688;2023-01-19T22:46:32;-0.60;99.90
14771;DHT22;7477;45.222;5.688;2023-01-19T22:49:51;-0.60;99.90
14771;DHT22;7477;45.222;5.688;2023-01-19T22:53:10;-0.60;99.90
14771;DHT22;7477;45.222;5.688;2023-01-19T22:56:31;-0.70;99.90
14771;DHT22;7477;45.222;5.688;2023-01-19T22:59:51;-0.60;99.90